Cuchara Valley Airport At La Veta, CO

3:03 PM MST on February 19, 2017 (GMT -0700)
E Francisco St. | | Change Station

Elev 7031 ft 37.51 °N, 105.01 °W | Updated 23 seconds ago

Partly Cloudy
Partly Cloudy
51.4 °F
Feels Like 51.4 °F
N
2.7
Wind Variable Wind from SW

Today
High -- | Low -- °F
--% Chance of Precip.
Yesterday
High -- | Low -- °F
Precip. -- in
Pressure 29.51 in
Visibility 10.0 miles
Clouds Clear
Dew Point 25 °F
Humidity 35%
Rainfall 0.00 in
Snow Depth Not available.
6:44 AM 5:44 PM
Last Quarter, 40% visible
METAR KTAD 192154Z AUTO 18027G31KT 10SM CLR 15/M07 A2966 RMK AO2 PK WND 18035/2125 SLP992 T01501067
Pressure 29.51 in
Visibility 10.0 miles
Clouds Clear
Dew Point 25 °F
Humidity 35%
Rainfall 0.00 in
Snow Depth Not available.
6:44 AM 5:44 PM
Last Quarter, 40% visible
METAR KTAD 192154Z AUTO 18027G31KT 10SM CLR 15/M07 A2966 RMK AO2 PK WND 18035/2125 SLP992 T01501067

Get Your Daily Forecast Email!

Thanks for signing up!

Be on the lookout for a verification email in your inbox.

You'll start receiving the daily forecast at 8 AM.

×

10-Day Weather Forecast

Almanac

Astronomy

Feb. 19, 2017 Rise Set
Actual Time
Civil Twilight
Nautical Twilight
Astronomical Twilight
Moon
Length of Visible Light
Length of Day
Tomorrow will be .
, % of the Moon is Illuminated

Today's Extremes

State Highs State Lows

Community

WunderPhotos

Upload Photos

1,962,540 photos uploaded!

WunderBlog® & News

Nearby

Air Quality

  Air Quality AQ Index Pollutant
Not available.

Snow Depth

Station Depth Elevation

Earthquake Activity

City Distance Mag. Time & Date
Minimum magnitude displayed is 2.5.

Coastal Water Temperatures

Place Temperature

Stations

Nearby Weather Stations

Station Location Temp. Windchill Dew Point Humidity Wind Precip. Elev Updated Type
                   

Watches & Warnings

There are currently no watches in effect.